Terminal Aerodrome Forecast
Issued by NWS

Home | Current Version | Previous Version | Text Only | Print | Product List | Glossary On
Versions: 1 2 3 4 5 6 7 8 9 10 11
000
FTUS46 KLOX 191123
TAFWJF
TAF
KWJF 191123Z 1912/2012 25012KT P6SM SKC
     FM192000 25022G32KT P6SM BKN250
     FM200200 25018KT P6SM BKN120
     FM201000 25023KT P6SM SCT050 BKN100=

USA.gov is the U.S. government's official web portal to all federal, state and local government web resources and services.